Shawnee, Ohio
Current Conditions -  °F | °C
As of 6:53 PM on Monday 24 Nov 2014 (Local Time) from KLHQ Reporting Station
Overcast Overcast  
Wind Chill: 38°   Ceiling: 4300
Heat Index: 45°   Visibility: 10mi
Dew Point: 32°   Wind: 16mph
Humidity: 60%   Direction: 240°WSW
Pressure: 29.8"   Gusts: 26mph
Location:  39.6°N, 82.21°W
Report Text: KLHQ 242353Z AUTO 24014G23KT 10SM OVC043 07/00 A2980 RMK AO2 PK WND 23027/2333 SLP089 T00720000 10161 20072 51050
Loading
Personal Weather Stations






























Interactive Weather Map New forecast layout! Learn more

10-Day Weather Forecast

Advertisements
Track Severe Weather on mobile